Time;durP1;ratioP1;P1;durP2;ratioP2;P2;SDS_P1;SDS_P2;PMS_P1;PMS_P2;Temp;Humidity;BMP_temperature;BMP_pressure;BME280_temperature;BME280_humidity;BME280_pressure;Samples;Min_cycle;Max_cycle;Signal;HPM_P1;HPM_P2
2023/12/31 00:02:27;;;;;;;2.60;1.20;;;;;;;14.40;40.14;99141.52;108230;1251;73364;-64
2023/12/31 00:04:58;;;;;;;1.50;1.20;;;;;;;14.48;40.31;99140.62;108193;1253;60902;-63
2023/12/31 00:07:29;;;;;;;2.90;1.20;;;;;;;15.00;39.34;99138.73;108285;1253;60071;-64
2023/12/31 00:10:00;;;;;;;1.30;1.00;;;;;;;14.38;40.07;99141.12;108384;1252;74520;-63
2023/12/31 00:12:31;;;;;;;2.10;1.30;;;;;;;14.14;40.64;99139.64;108238;1251;69614;-63
2023/12/31 00:15:42;;;;;;;2.50;1.30;;;;;;;14.23;40.49;99142.43;108363;1253;72359;-63
2023/12/31 00:18:19;;;;;;;2.60;1.30;;;;;;;14.21;40.73;99144.35;108306;1253;60352;-63
2023/12/31 00:21:30;;;;;;;1.40;1.20;;;;;;;14.22;40.77;99140.39;108431;1251;59641;-63
2023/12/31 00:28:11;;;;;;;1.70;1.50;;;;;;;14.47;40.14;99130.60;108353;1251;69925;-60
2023/12/31 00:31:23;;;;;;;3.30;1.90;;;;;;;14.77;39.60;99130.98;108377;1253;72407;-63
2023/12/31 00:34:35;;;;;;;4.80;1.40;;;;;;;14.51;39.92;99130.21;108343;1254;61704;-62
2023/12/31 00:37:47;;;;;;;2.70;1.50;;;;;;;14.11;40.61;99143.72;108171;1253;59953;-63
2023/12/31 00:40:21;;;;;;;2.30;1.50;;;;;;;14.17;40.55;99141.80;108277;1252;74446;-62
2023/12/31 00:43:19;;;;;;;2.30;1.40;;;;;;;14.23;40.37;99140.67;108308;1251;69138;-62
2023/12/31 00:46:31;;;;;;;1.80;1.30;;;;;;;14.05;40.51;99142.58;108351;1251;73261;-62
2023/12/31 00:49:42;;;;;;;2.10;1.40;;;;;;;13.90;40.96;99143.86;108244;1251;60597;-62
2023/12/31 00:53:01;;;;;;;3.10;1.30;;;;;;;13.88;41.08;99141.70;108335;1251;60062;-62
2023/12/31 00:58:58;;;;;;;2.20;1.30;;;;;;;13.88;41.17;99145.07;108124;1252;68649;-61
2023/12/31 01:03:19;;;;;;;1.80;1.30;;;;;;;14.59;41.61;99148.42;102746;1294;601248;-62
2023/12/31 01:05:50;;;;;;;1.80;1.50;;;;;;;16.52;37.10;99137.88;103753;1270;60635;-62
2023/12/31 01:08:21;;;;;;;2.50;1.50;;;;;;;16.49;36.70;99145.14;104047;1272;59397;-62
2023/12/31 01:10:52;;;;;;;2.00;1.40;;;;;;;16.49;36.74;99140.02;103613;1267;72271;-62
2023/12/31 01:13:23;;;;;;;2.00;1.50;;;;;;;16.39;36.74;99137.45;103957;1265;69052;-62
2023/12/31 01:19:46;;;;;;;2.90;2.00;;;;;;;16.33;36.94;99142.11;104073;1266;59905;-62
2023/12/31 01:22:57;;;;;;;1.70;1.50;;;;;;;16.25;37.02;99136.87;105172;1254;73118;-63
2023/12/31 01:26:09;;;;;;;1.90;1.40;;;;;;;16.22;37.00;99137.29;104757;1265;69722;-63
2023/12/31 01:29:21;;;;;;;2.90;1.90;;;;;;;16.08;37.15;99138.83;104347;1255;72866;-67
2023/12/31 01:31:52;;;;;;;3.10;1.80;;;;;;;16.12;37.04;99138.39;105749;1250;60632;-63
2023/12/31 01:34:23;;;;;;;4.10;1.60;;;;;;;15.81;37.61;99134.41;105494;1257;59925;-63
2023/12/31 01:36:55;;;;;;;2.50;1.90;;;;;;;14.69;39.45;99137.84;105078;1266;73146;-63
2023/12/31 01:39:26;;;;;;;1.60;1.40;;;;;;;14.51;40.10;99152.62;105157;1253;69145;-63
2023/12/31 01:41:57;;;;;;;3.20;1.60;;;;;;;14.75;39.81;99155.05;105254;1253;72596;-63
2023/12/31 01:44:28;;;;;;;2.00;1.50;;;;;;;14.81;39.66;99156.06;104443;1257;60822;-64
2023/12/31 01:47:52;;;;;;;3.50;1.80;;;;;;;14.70;39.94;99155.89;104733;1256;60729;-63
2023/12/31 01:51:06;;;;;;;2.60;1.80;;;;;;;14.40;40.55;99158.08;104332;1271;72790;-63
2023/12/31 01:54:17;;;;;;;4.10;1.80;;;;;;;14.13;40.76;99155.96;104400;1259;69639;-64
2023/12/31 01:56:48;;;;;;;3.40;2.40;;;;;;;14.29;40.73;99147.89;105023;1251;72344;-63
2023/12/31 01:59:24;;;;;;;3.80;1.60;;;;;;;14.74;40.07;99146.82;104619;1255;61555;-63
2023/12/31 02:01:51;;;;;;;3.90;2.20;;;;;;;14.55;40.27;99149.34;107873;1253;61179;-63
2023/12/31 02:04:32;;;;;;;2.90;2.00;;;;;;;14.55;40.30;99149.52;107523;1252;73287;-64
2023/12/31 02:07:03;;;;;;;6.50;1.80;;;;;;;14.55;40.40;99154.08;104427;1259;69998;-62
2023/12/31 02:09:34;;;;;;;2.70;1.80;;;;;;;14.36;40.57;99152.55;104868;1256;72412;-62
2023/12/31 02:12:05;;;;;;;2.30;1.70;;;;;;;14.26;40.86;99161.30;105241;1256;60617;-62
2023/12/31 02:14:36;;;;;;;2.60;1.80;;;;;;;14.37;40.58;99171.28;108372;1252;60123;-62
2023/12/31 02:17:47;;;;;;;4.70;1.80;;;;;;;14.44;40.64;99172.98;108222;1252;72764;-63
2023/12/31 02:20:58;;;;;;;2.10;1.60;;;;;;;14.23;40.99;99171.02;108241;1252;69311;-63
2023/12/31 02:24:10;;;;;;;2.20;1.70;;;;;;;14.32;40.94;99168.84;108256;1253;72685;-63
2023/12/31 02:27:21;;;;;;;3.40;1.90;;;;;;;14.25;40.90;99165.38;108286;1252;60021;-64
2023/12/31 02:34:06;;;;;;;2.90;1.70;;;;;;;14.03;41.44;99172.15;108410;1251;72913;-63
2023/12/31 02:37:23;;;;;;;3.70;2.00;;;;;;;14.12;41.44;99177.70;108250;1253;69760;-63
2023/12/31 02:40:34;;;;;;;3.60;2.20;;;;;;;14.09;41.30;99179.14;108163;1253;72391;-63
2023/12/31 02:43:46;;;;;;;3.30;2.10;;;;;;;14.00;41.41;99185.91;108303;1253;60588;-62
2023/12/31 02:46:57;;;;;;;4.20;2.00;;;;;;;14.03;41.39;99192.05;108291;1253;58897;-64
2023/12/31 02:50:12;;;;;;;5.10;2.50;;;;;;;13.69;42.00;99189.98;108280;1253;71926;-63
2023/12/31 02:53:20;;;;;;;4.70;2.20;;;;;;;13.33;42.59;99191.67;108290;1252;68579;-62
2023/12/31 02:56:31;;;;;;;4.10;2.20;;;;;;;13.30;42.71;99184.11;108293;1252;74870;-63
2023/12/31 02:59:42;;;;;;;3.30;2.00;;;;;;;13.08;43.08;99187.50;108228;1252;60580;-62
2023/12/31 03:02:10;;;;;;;3.20;1.90;;;;;;;13.14;43.05;99187.30;108096;1253;59792;-62
2023/12/31 03:04:41;;;;;;;4.20;2.10;;;;;;;13.20;42.82;99189.59;108166;1252;73696;-62
2023/12/31 03:07:12;;;;;;;4.20;1.90;;;;;;;13.20;42.96;99185.90;108369;1252;68169;-62
2023/12/31 03:09:44;;;;;;;5.30;2.20;;;;;;;13.11;42.98;99183.64;108251;1251;72357;-63
2023/12/31 03:12:15;;;;;;;2.50;1.70;;;;;;;13.09;43.06;99185.14;108349;1251;59792;-62
2023/12/31 03:14:45;;;;;;;2.60;1.80;;;;;;;13.25;42.77;99181.73;108355;1250;60149;-62
2023/12/31 03:17:25;;;;;;;3.80;2.00;;;;;;;12.96;43.24;99187.88;108401;1252;73380;-62
2023/12/31 03:20:37;;;;;;;2.60;1.80;;;;;;;12.80;43.68;99190.92;108318;1251;69141;-62
2023/12/31 03:23:20;;;;;;;4.60;1.90;;;;;;;12.84;43.49;99192.12;108162;1251;72295;-62
2023/12/31 03:26:33;;;;;;;4.40;2.20;;;;;;;12.81;43.69;99201.41;108254;1251;60619;-62
2023/12/31 03:32:50;;;;;;;3.90;2.30;;;;;;;12.87;43.20;99208.10;108271;1251;72720;-62
2023/12/31 03:35:52;;;;;;;4.00;2.30;;;;;;;13.04;43.13;99206.23;108240;1251;69774;-62
2023/12/31 03:39:05;;;;;;;4.20;2.30;;;;;;;13.08;42.92;99211.62;108420;1252;73255;-62
2023/12/31 03:56:17;;;;;;;3.50;2.20;;;;;;;12.47;44.37;99240.52;108301;1251;72609;-62
2023/12/31 03:58:52;;;;;;;3.60;2.00;;;;;;;12.36;44.73;99246.52;108040;1253;60847;-62
2023/12/31 04:01:23;;;;;;;3.90;1.90;;;;;;;12.59;44.30;99248.44;108301;1253;59710;-64
2023/12/31 04:03:53;;;;;;;6.20;2.70;;;;;;;12.99;43.73;99247.99;108412;1252;72222;-62
2023/12/31 04:06:58;;;;;;;5.20;2.40;;;;;;;12.84;44.08;99254.21;108278;1251;69420;-62
2023/12/31 04:09:32;;;;;;;5.40;2.70;;;;;;;12.84;44.25;99258.38;108284;1253;73391;-62
2023/12/31 04:12:29;;;;;;;4.20;2.70;;;;;;;12.89;44.15;99261.30;108393;1253;60605;-62
2023/12/31 04:15:40;;;;;;;5.10;3.20;;;;;;;13.22;43.74;99257.77;108214;1253;59729;-62
2023/12/31 04:18:53;;;;;;;6.30;2.80;;;;;;;13.37;43.14;99259.48;108414;1252;73765;-62
2023/12/31 04:22:05;;;;;;;4.40;2.60;;;;;;;13.55;43.19;99263.52;108267;1253;69423;-63
2023/12/31 04:25:16;;;;;;;4.50;2.30;;;;;;;13.13;43.57;99265.30;108391;1252;72142;-62
2023/12/31 04:28:27;;;;;;;4.50;2.30;;;;;;;13.06;44.14;99262.39;108026;1253;60786;-63
2023/12/31 04:31:39;;;;;;;4.10;2.70;;;;;;;13.09;44.29;99266.63;107866;1253;59706;-63
2023/12/31 04:34:53;;;;;;;4.40;2.40;;;;;;;13.24;43.78;99263.08;108442;1252;72894;-62
2023/12/31 04:38:04;;;;;;;2.70;2.00;;;;;;;13.27;43.78;99265.04;108316;1252;69657;-63
2023/12/31 04:41:15;;;;;;;3.20;2.00;;;;;;;13.41;43.69;99264.56;108209;1253;72481;-64
2023/12/31 04:44:32;;;;;;;5.60;2.50;;;;;;;13.32;43.50;99260.16;108301;1253;60595;-62
2023/12/31 04:47:45;;;;;;;4.00;2.30;;;;;;;13.58;43.23;99257.58;108304;1253;61057;-62
2023/12/31 04:54:26;;;;;;;2.60;2.30;;;;;;;13.51;43.16;99273.13;108413;1252;68312;-63
2023/12/31 04:57:37;;;;;;;5.60;2.40;;;;;;;13.24;43.58;99272.41;108267;1253;72663;-63
2023/12/31 05:00:49;;;;;;;4.50;2.80;;;;;;;13.03;44.13;99274.33;107922;1254;60338;-63
2023/12/31 05:03:19;;;;;;;3.80;2.40;;;;;;;13.02;43.99;99279.86;108288;1253;60580;-63
2023/12/31 05:05:50;;;;;;;4.60;2.50;;;;;;;13.02;43.90;99292.55;108386;1252;75504;-63
2023/12/31 05:08:23;;;;;;;4.20;2.50;;;;;;;13.03;43.85;99290.88;108267;1252;70041;-64
2023/12/31 05:10:54;;;;;;;3.20;2.60;;;;;;;12.99;44.04;99291.86;108220;1253;73411;-64
2023/12/31 05:13:25;;;;;;;4.70;2.60;;;;;;;13.05;44.13;99287.11;108333;1253;60592;-64
2023/12/31 05:15:56;;;;;;;5.10;2.60;;;;;;;13.25;43.41;99288.59;108305;1253;58839;-64
2023/12/31 05:29:31;;;;;;;4.20;2.50;;;;;;;13.19;43.60;99301.39;108384;1252;59966;-62
2023/12/31 05:32:42;;;;;;;4.80;2.80;;;;;;;12.86;44.15;99305.25;108330;1253;59804;-63
2023/12/31 05:35:57;;;;;;;4.60;2.80;;;;;;;13.04;43.93;99307.04;108252;1253;73602;-64
2023/12/31 05:38:27;;;;;;;4.20;2.30;;;;;;;13.06;43.98;99298.14;108402;1252;70065;-63
2023/12/31 05:40:58;;;;;;;5.50;2.40;;;;;;;13.11;43.78;99303.11;108302;1253;71206;-63
2023/12/31 05:43:29;;;;;;;4.20;2.60;;;;;;;13.19;43.73;99305.09;108266;1251;60562;-64
2023/12/31 05:46:00;;;;;;;4.10;2.90;;;;;;;13.17;43.81;99304.51;108272;1252;60673;-64
2023/12/31 05:51:50;;;;;;;6.00;2.80;;;;;;;13.22;43.90;99309.66;102157;1294;602164;-63
2023/12/31 05:55:02;;;;;;;4.90;2.80;;;;;;;13.17;44.08;99306.48;104317;1269;60834;-63
2023/12/31 05:58:11;;;;;;;5.30;2.90;;;;;;;13.13;43.98;99302.06;103782;1269;59685;-62
2023/12/31 06:01:23;;;;;;;4.40;2.90;;;;;;;12.94;44.34;99298.44;103885;1276;72030;-63
2023/12/31 06:15:06;;;;;;;3.70;2.70;;;;;;;13.46;43.04;99310.23;104299;1267;60240;-62
2023/12/31 06:18:11;;;;;;;5.30;3.10;;;;;;;13.41;43.23;99311.22;104209;1276;71890;-61
2023/12/31 06:20:42;;;;;;;6.70;3.50;;;;;;;13.19;43.62;99312.65;105755;1258;71076;-66
2023/12/31 06:23:13;;;;;;;5.00;2.80;;;;;;;13.41;43.16;99311.94;106668;1261;72713;-60
2023/12/31 06:25:46;;;;;;;5.00;2.60;;;;;;;13.48;43.04;99311.49;104337;1257;59880;-60
2023/12/31 06:28:19;;;;;;;4.60;2.60;;;;;;;13.45;42.97;99312.20;104686;1260;59749;-60
2023/12/31 06:30:50;;;;;;;5.30;3.10;;;;;;;13.39;43.12;99313.80;104204;1279;72919;-60
2023/12/31 06:33:24;;;;;;;4.20;3.10;;;;;;;13.91;42.42;99319.62;105402;1256;69186;-60
2023/12/31 06:36:37;;;;;;;9.10;2.70;;;;;;;14.15;41.65;99321.52;104875;1260;72508;-61
2023/12/31 06:39:52;;;;;;;7.90;3.20;;;;;;;13.81;42.29;99331.20;104422;1257;61677;-61
2023/12/31 06:43:11;;;;;;;5.40;2.90;;;;;;;13.78;42.57;99333.82;104669;1261;59759;-60
2023/12/31 06:46:29;;;;;;;4.30;3.00;;;;;;;13.74;42.53;99330.17;104811;1260;72922;-63
2023/12/31 06:52:36;;;;;;;4.70;3.80;;;;;;;13.84;42.48;99331.55;104400;1269;72281;-61
2023/12/31 06:55:51;;;;;;;7.30;4.10;;;;;;;13.84;42.46;99327.98;104333;1261;60649;-65
2023/12/31 06:59:03;;;;;;;6.30;3.80;;;;;;;13.93;42.44;99325.15;104347;1257;60082;-65
2023/12/31 07:02:14;;;;;;;4.60;3.80;;;;;;;14.13;42.16;99327.80;105310;1260;73679;-63
2023/12/31 07:04:45;;;;;;;6.60;3.60;;;;;;;14.18;42.00;99332.08;105924;1257;70623;-63
2023/12/31 07:07:16;;;;;;;5.50;3.50;;;;;;;14.22;42.00;99337.14;107068;1256;72518;-64
2023/12/31 07:09:47;;;;;;;5.30;3.50;;;;;;;14.17;42.19;99341.14;104755;1257;60554;-64
2023/12/31 07:12:18;;;;;;;6.60;3.80;;;;;;;13.98;42.62;99344.56;105565;1263;60234;-63
2023/12/31 07:14:50;;;;;;;4.90;3.20;;;;;;;14.02;42.57;99340.10;104456;1261;73262;-62
2023/12/31 07:17:20;;;;;;;4.40;2.80;;;;;;;14.28;42.20;99344.30;104934;1261;69060;-62
2023/12/31 07:20:41;;;;;;;5.60;2.50;;;;;;;14.60;41.58;99344.41;104604;1264;73021;-64
2023/12/31 07:23:12;;;;;;;4.30;2.60;;;;;;;14.48;41.65;99349.21;104336;1265;59903;-64
2023/12/31 07:26:24;;;;;;;5.60;3.50;;;;;;;13.94;42.53;99360.33;104173;1262;60207;-62
2023/12/31 07:29:36;;;;;;;5.20;3.00;;;;;;;13.81;42.89;99357.25;104921;1256;72816;-64
2023/12/31 07:32:48;;;;;;;4.90;3.10;;;;;;;13.84;42.92;99363.04;104155;1264;69231;-62
2023/12/31 07:36:00;;;;;;;3.90;2.30;;;;;;;14.00;42.75;99364.20;104319;1272;72917;-61
2023/12/31 07:39:15;;;;;;;4.90;2.80;;;;;;;13.61;43.36;99367.79;104334;1263;59723;-63
2023/12/31 07:41:46;;;;;;;3.90;2.60;;;;;;;14.01;42.91;99366.10;104321;1276;60394;-64
2023/12/31 07:44:20;;;;;;;4.60;3.00;;;;;;;14.11;42.75;99365.27;107613;1258;72333;-64
2023/12/31 07:46:54;;;;;;;6.30;2.80;;;;;;;14.25;42.36;99369.70;106255;1259;70073;-60
2023/12/31 07:49:25;;;;;;;5.20;3.40;;;;;;;14.10;42.85;99374.48;105037;1262;72634;-62
2023/12/31 07:51:53;;;;;;;5.90;3.40;;;;;;;14.06;43.06;99376.83;104205;1258;60107;-63
2023/12/31 07:54:25;;;;;;;6.40;2.90;;;;;;;14.21;42.84;99381.77;104533;1262;60682;-66
2023/12/31 07:57:21;;;;;;;4.90;3.40;;;;;;;14.31;42.64;99381.88;104593;1257;72872;-61
2023/12/31 08:00:10;;;;;;;5.80;3.00;;;;;;;14.71;42.02;99382.70;104909;1262;69625;-61
2023/12/31 08:03:11;;;;;;;7.30;2.80;;;;;;;14.10;42.72;99388.27;104429;1276;72580;-62
2023/12/31 08:05:42;;;;;;;4.90;3.10;;;;;;;14.34;42.56;99390.46;105029;1256;61007;-61
2023/12/31 08:08:32;;;;;;;5.30;2.80;;;;;;;14.29;42.61;99394.00;104149;1261;59938;-61
2023/12/31 08:11:04;;;;;;;6.60;3.50;;;;;;;14.67;41.91;99392.48;104568;1276;73264;-65
2023/12/31 08:14:16;;;;;;;5.60;3.20;;;;;;;14.70;41.63;99394.09;104434;1263;71630;-60
2023/12/31 08:17:28;;;;;;;5.60;3.10;;;;;;;14.45;42.15;99400.74;105048;1263;73031;-63
2023/12/31 08:20:40;;;;;;;7.90;3.40;;;;;;;14.49;42.21;99403.50;104602;1263;60608;-63
2023/12/31 08:23:52;;;;;;;5.70;3.20;;;;;;;14.74;41.92;99402.66;104253;1261;60097;-62
2023/12/31 08:27:04;;;;;;;4.60;2.70;;;;;;;14.67;41.95;99400.60;104517;1262;72920;-64
2023/12/31 08:29:32;;;;;;;5.20;2.90;;;;;;;14.52;42.22;99404.34;104842;1262;69241;-64
2023/12/31 08:32:44;;;;;;;3.50;2.80;;;;;;;14.42;42.45;99402.68;104311;1261;72878;-64
2023/12/31 08:35:57;;;;;;;5.90;2.90;;;;;;;14.66;42.09;99400.50;104954;1257;60352;-64
2023/12/31 08:39:09;;;;;;;6.10;3.10;;;;;;;14.14;43.01;99403.02;104444;1263;60073;-63
2023/12/31 08:42:21;;;;;;;5.30;2.90;;;;;;;14.26;42.66;99400.30;104453;1257;71715;-63
2023/12/31 08:45:34;;;;;;;5.50;2.70;;;;;;;13.99;43.47;99403.39;104392;1274;69457;-63
2023/12/31 08:48:46;;;;;;;4.30;2.90;;;;;;;14.42;42.62;99399.16;104231;1263;71489;-64
2023/12/31 08:51:20;;;;;;;6.10;3.20;;;;;;;14.33;42.66;99405.00;104450;1264;60258;-63
2023/12/31 08:54:33;;;;;;;6.70;3.20;;;;;;;14.34;42.80;99409.50;104222;1273;60092;-60
2023/12/31 08:57:47;;;;;;;5.80;3.10;;;;;;;14.50;42.59;99404.84;104762;1260;73772;-60
2023/12/31 09:00:59;;;;;;;7.00;2.90;;;;;;;14.38;42.62;99405.92;104487;1257;69203;-60
2023/12/31 09:04:11;;;;;;;5.50;2.90;;;;;;;14.57;42.21;99411.46;104467;1258;72498;-62
2023/12/31 09:06:42;;;;;;;5.00;2.90;;;;;;;14.76;41.78;99407.63;104151;1263;60023;-64
2023/12/31 09:09:14;;;;;;;5.20;3.00;;;;;;;14.45;42.20;99405.67;107827;1257;59016;-63
2023/12/31 09:11:45;;;;;;;3.90;2.90;;;;;;;14.41;42.42;99401.01;105828;1256;73779;-62
2023/12/31 09:14:16;;;;;;;5.10;2.70;;;;;;;14.27;42.98;99402.91;104564;1261;68671;-63
2023/12/31 09:16:47;;;;;;;4.40;2.70;;;;;;;14.45;42.86;99401.64;104816;1260;72315;-61
2023/12/31 09:19:18;;;;;;;4.60;2.20;;;;;;;14.49;42.66;99410.70;104644;1258;61693;-63
2023/12/31 09:25:56;;;;;;;6.40;3.40;;;;;;;14.45;42.54;99405.53;104268;1269;71758;-64
2023/12/31 09:29:08;;;;;;;5.90;2.60;;;;;;;14.67;42.29;99404.66;104307;1261;70302;-64
2023/12/31 09:32:23;;;;;;;5.50;2.70;;;;;;;15.13;41.89;99403.11;105066;1260;73572;-63
2023/12/31 09:39:06;;;;;;;6.50;3.40;;;;;;;15.65;40.65;99412.96;104786;1261;60266;-62
2023/12/31 09:41:52;;;;;;;4.40;2.70;;;;;;;15.84;40.54;99409.91;104679;1260;73268;-62
2023/12/31 09:47:59;;;;;;;4.80;2.50;;;;;;;15.89;39.95;99413.80;105935;1256;71696;-62
2023/12/31 09:50:30;;;;;;;3.50;2.50;;;;;;;15.84;39.86;99412.92;107812;1257;60802;-63
2023/12/31 09:52:59;;;;;;;4.20;2.50;;;;;;;15.73;39.81;99409.05;107837;1256;59875;-61
2023/12/31 09:55:31;;;;;;;4.20;2.60;;;;;;;15.57;40.44;99402.88;106355;1257;74377;-62
2023/12/31 09:58:02;;;;;;;3.70;2.50;;;;;;;15.72;40.67;99398.92;105669;1260;69316;-60
2023/12/31 10:00:33;;;;;;;4.00;2.10;;;;;;;15.91;40.55;99401.52;105319;1257;72458;-60
2023/12/31 10:03:13;;;;;;;4.20;2.30;;;;;;;16.10;40.30;99400.17;105122;1257;60570;-61
2023/12/31 10:06:25;;;;;;;4.90;2.90;;;;;;;16.37;40.12;99399.91;105015;1257;59758;-61
2023/12/31 10:08:56;;;;;;;3.70;2.40;;;;;;;16.62;39.09;99400.98;107996;1257;72723;-61
2023/12/31 10:11:27;;;;;;;4.10;2.40;;;;;;;16.69;38.81;99403.59;106888;1261;68361;-62
2023/12/31 10:13:58;;;;;;;4.60;2.10;;;;;;;16.77;38.31;99401.64;104933;1257;72416;-61
2023/12/31 10:16:37;;;;;;;4.90;2.30;;;;;;;16.66;38.03;99399.98;104738;1261;60599;-60
2023/12/31 10:19:07;;;;;;;4.50;2.10;;;;;;;16.70;37.12;99400.35;105695;1260;59889;-64
2023/12/31 10:21:40;;;;;;;2.90;1.80;;;;;;;16.48;37.22;99399.10;106033;1256;72866;-62
2023/12/31 10:24:52;;;;;;;3.10;1.70;;;;;;;16.38;37.52;99404.77;104606;1260;69374;-61
2023/12/31 10:28:04;;;;;;;4.50;2.10;;;;;;;16.32;37.31;99398.06;104525;1257;72382;-63
2023/12/31 10:31:16;;;;;;;2.90;1.90;;;;;;;16.14;37.42;99396.17;105035;1257;61610;-59
2023/12/31 10:34:32;;;;;;;5.40;2.60;;;;;;;15.92;37.59;99393.48;104747;1261;60114;-60
2023/12/31 10:37:47;;;;;;;4.20;2.10;;;;;;;15.90;37.15;99387.23;104818;1257;73105;-60
2023/12/31 10:40:59;;;;;;;4.10;2.10;;;;;;;15.75;37.08;99393.73;104821;1257;69712;-60
2023/12/31 10:44:11;;;;;;;3.80;2.10;;;;;;;15.58;37.33;99388.84;104548;1257;72167;-59
2023/12/31 10:47:22;;;;;;;2.90;2.20;;;;;;;15.66;36.80;99384.79;104390;1258;60602;-62
2023/12/31 10:50:34;;;;;;;3.90;2.40;;;;;;;15.38;37.17;99384.13;104579;1257;60523;-60
2023/12/31 10:53:10;;;;;;;5.00;3.00;;;;;;;15.46;36.87;99385.94;104427;1258;73654;-62
2023/12/31 10:55:45;;;;;;;4.50;3.10;;;;;;;15.53;36.75;99382.63;104954;1257;69307;-62
2023/12/31 10:58:13;;;;;;;8.60;4.10;;;;;;;15.88;36.31;99382.56;104750;1257;72941;-63
2023/12/31 11:01:25;;;;;;;6.00;3.40;;;;;;;15.82;36.14;99385.35;104647;1254;60597;-62
2023/12/31 11:03:56;;;;;;;4.40;2.90;;;;;;;15.74;36.19;99387.28;105345;1251;60456;-64
2023/12/31 11:07:11;;;;;;;5.00;3.30;;;;;;;15.73;35.80;99386.44;105071;1254;73703;-60
2023/12/31 11:09:43;;;;;;;3.10;2.40;;;;;;;15.75;35.80;99395.86;108000;1251;69157;-67
2023/12/31 11:12:17;;;;;;;4.10;2.20;;;;;;;15.74;35.86;99394.81;107632;1253;72568;-66
2023/12/31 11:14:57;;;;;;;3.90;1.90;;;;;;;15.91;35.92;99388.23;105680;1254;60554;-66
2023/12/31 11:18:22;;;;;;;3.40;1.80;;;;;;;16.18;35.80;99382.13;107223;1253;60386;-66
2023/12/31 11:21:11;;;;;;;2.50;1.50;;;;;;;16.26;35.66;99378.55;104559;1262;73605;-66
2023/12/31 11:24:26;;;;;;;3.00;2.00;;;;;;;16.33;35.56;99379.27;104505;1261;69725;-67
2023/12/31 11:27:41;;;;;;;5.40;2.30;;;;;;;16.37;35.42;99380.80;105830;1254;72581;-67
2023/12/31 11:30:53;;;;;;;4.00;1.90;;;;;;;16.36;35.67;99376.76;105320;1251;60542;-66
2023/12/31 11:34:05;;;;;;;3.10;1.80;;;;;;;16.43;35.65;99375.19;104587;1254;60540;-71
2023/12/31 11:37:17;;;;;;;4.60;1.90;;;;;;;16.72;35.34;99375.77;104424;1257;73920;-67
2023/12/31 11:40:29;;;;;;;2.50;1.70;;;;;;;16.71;34.89;99374.65;105196;1251;69501;-67
2023/12/31 11:43:41;;;;;;;3.20;2.00;;;;;;;16.22;35.16;99380.56;104555;1256;72910;-68
2023/12/31 11:46:53;;;;;;;2.90;2.00;;;;;;;16.10;35.56;99385.67;104476;1253;60479;-61
2023/12/31 11:49:25;;;;;;;3.60;2.00;;;;;;;16.38;35.41;99386.94;105551;1251;60447;-65
2023/12/31 11:52:01;;;;;;;2.90;2.00;;;;;;;16.57;35.19;99384.11;108348;1251;73716;-66
2023/12/31 11:54:33;;;;;;;2.80;2.00;;;;;;;16.41;35.52;99393.40;107342;1253;69422;-66
2023/12/31 11:57:09;;;;;;;3.70;2.00;;;;;;;16.52;35.64;99394.02;105696;1255;73334;-64
2023/12/31 11:59:43;;;;;;;2.70;2.20;;;;;;;16.39;35.73;99391.12;105533;1251;60555;-67
2023/12/31 12:02:12;;;;;;;4.60;3.10;;;;;;;16.57;35.68;99394.02;104655;1254;60658;-64
2023/12/31 12:04:49;;;;;;;5.00;2.90;;;;;;;16.77;35.37;99387.67;105565;1251;73703;-62
2023/12/31 12:08:13;;;;;;;5.20;2.50;;;;;;;16.53;35.49;99392.00;104609;1257;69447;-64
2023/12/31 12:11:25;;;;;;;3.50;2.00;;;;;;;16.37;35.28;99387.52;105014;1252;72377;-64
2023/12/31 12:14:37;;;;;;;3.00;1.80;;;;;;;15.97;35.65;99395.02;104693;1263;60484;-65
2023/12/31 12:17:50;;;;;;;3.90;2.00;;;;;;;15.87;35.27;99401.73;104660;1251;60483;-63
2023/12/31 12:21:03;;;;;;;3.20;1.80;;;;;;;15.80;34.91;99397.83;104431;1257;73649;-63
2023/12/31 12:24:03;;;;;;;2.80;1.70;;;;;;;15.65;35.15;99397.44;105505;1251;69407;-64
2023/12/31 12:26:35;;;;;;;3.70;1.80;;;;;;;15.64;34.91;99394.66;105002;1252;73465;-64
2023/12/31 12:29:10;;;;;;;2.90;1.70;;;;;;;15.44;35.13;99400.56;104973;1254;60363;-65
2023/12/31 12:31:46;;;;;;;3.30;1.60;;;;;;;15.53;35.17;99405.45;105192;1254;60738;-64
2023/12/31 12:35:03;;;;;;;2.70;2.00;;;;;;;15.52;34.88;99403.71;104740;1260;74513;-64
2023/12/31 12:38:11;;;;;;;2.60;1.80;;;;;;;15.12;35.29;99411.34;104441;1263;69302;-64
2023/12/31 12:41:23;;;;;;;5.10;2.00;;;;;;;15.04;35.54;99415.54;105308;1257;72514;-63
2023/12/31 12:44:35;;;;;;;6.30;1.80;;;;;;;15.11;35.52;99425.13;105398;1251;60465;-64
2023/12/31 12:47:47;;;;;;;3.30;1.90;;;;;;;14.95;35.90;99427.56;104910;1257;60628;-62
2023/12/31 12:51:03;;;;;;;4.70;1.90;;;;;;;15.15;35.94;99432.48;105339;1251;73559;-63
2023/12/31 12:54:21;;;;;;;4.10;2.30;;;;;;;15.43;35.55;99430.16;104660;1261;68253;-64
2023/12/31 13:01:24;;;;;;;3.70;1.90;;;;;;;15.39;35.34;99439.73;104451;1251;60621;-67
2023/12/31 13:08:56;;;;;;;3.80;1.90;;;;;;;13.91;37.55;99452.80;105118;1250;75191;-66
2023/12/31 13:11:29;;;;;;;3.20;1.70;;;;;;;14.71;36.48;99446.93;105472;1251;68020;-67
2023/12/31 13:14:00;;;;;;;4.40;2.20;;;;;;;14.72;36.52;99454.07;108344;1251;72512;-68
2023/12/31 13:19:10;;;;;;;2.90;2.10;;;;;;;15.18;36.75;99462.76;101518;1290;600888;-65
2023/12/31 13:21:41;;;;;;;3.60;2.30;;;;;;;16.46;34.15;99457.46;103913;1269;59310;-67
2023/12/31 13:24:13;;;;;;;5.90;2.20;;;;;;;16.42;33.81;99454.34;103708;1267;60207;-65
2023/12/31 13:31:13;;;;;;;2.10;1.70;;;;;;;15.40;35.03;99457.71;103681;1270;68357;-62
2023/12/31 13:34:25;;;;;;;3.70;2.10;;;;;;;15.08;35.48;99458.52;104252;1262;220742;-63
2023/12/31 13:37:39;;;;;;;3.50;1.90;;;;;;;15.15;35.38;99456.32;104758;1258;59433;-60
2023/12/31 13:40:11;;;;;;;5.40;2.30;;;;;;;14.94;35.70;99461.35;104377;1257;59429;-61
2023/12/31 13:42:42;;;;;;;5.10;2.20;;;;;;;15.22;35.33;99464.19;104534;1257;70922;-61
2023/12/31 13:45:54;;;;;;;3.40;1.90;;;;;;;15.07;35.45;99465.13;104895;1257;69273;-60
2023/12/31 13:49:06;;;;;;;3.50;2.20;;;;;;;15.04;35.41;99466.02;104663;1260;72386;-61
2023/12/31 13:51:37;;;;;;;6.30;2.10;;;;;;;14.92;35.55;99472.10;105907;1255;59628;-62
2023/12/31 13:54:08;;;;;;;3.40;2.10;;;;;;;14.83;35.69;99469.48;106295;1256;59726;-62
2023/12/31 13:56:42;;;;;;;3.30;1.90;;;;;;;14.69;36.04;99473.33;107497;1255;73040;-61
2023/12/31 13:59:13;;;;;;;4.40;2.30;;;;;;;14.66;36.14;99472.11;106281;1260;70112;-64
2023/12/31 14:01:44;;;;;;;5.00;2.70;;;;;;;14.71;35.99;99472.14;104416;1270;72452;-68
2023/12/31 14:04:14;;;;;;;5.00;2.90;;;;;;;14.62;36.09;99473.64;105301;1257;59627;-62
2023/12/31 14:07:28;;;;;;;3.70;2.20;;;;;;;14.63;36.15;99474.95;105001;1260;60311;-68
2023/12/31 14:10:40;;;;;;;2.70;1.80;;;;;;;14.65;36.10;99473.59;104461;1257;72866;-67
2023/12/31 14:13:17;;;;;;;3.60;2.30;;;;;;;14.57;36.23;99474.27;104902;1272;69186;-62
2023/12/31 14:16:32;;;;;;;4.50;2.40;;;;;;;14.56;36.24;99473.05;104738;1260;72475;-60
2023/12/31 14:27:07;;;;;;;4.30;2.40;;;;;;;14.49;36.17;99476.16;104150;1263;73004;-64
2023/12/31 14:30:20;;;;;;;5.50;3.10;;;;;;;14.30;36.54;99476.38;104349;1260;69124;-62
2023/12/31 14:33:34;;;;;;;7.80;3.40;;;;;;;14.30;36.63;99478.86;104702;1257;74027;-61
2023/12/31 14:36:15;;;;;;;4.70;2.70;;;;;;;14.31;36.54;99487.83;104649;1258;61002;-65
2023/12/31 14:38:46;;;;;;;4.90;3.00;;;;;;;14.21;36.77;99483.14;104240;1260;60772;-65
2023/12/31 14:41:17;;;;;;;7.40;3.30;;;;;;;14.18;36.82;99489.49;107794;1257;73728;-62
2023/12/31 14:43:49;;;;;;;6.30;3.30;;;;;;;14.03;37.15;99491.64;106515;1257;68098;-61
2023/12/31 14:46:20;;;;;;;4.60;3.50;;;;;;;13.93;37.60;99494.83;104502;1256;72408;-63
2023/12/31 14:48:51;;;;;;;5.30;3.40;;;;;;;13.86;37.68;99495.23;105131;1263;60987;-63
2023/12/31 14:51:22;;;;;;;7.30;4.30;;;;;;;13.71;37.96;99496.84;105225;1257;59900;-62
2023/12/31 14:54:34;;;;;;;5.80;3.90;;;;;;;13.58;38.10;99500.20;104904;1258;71984;-62
2023/12/31 15:01:32;;;;;;;9.40;5.10;;;;;;;13.46;38.46;99504.58;104100;1258;72070;-62
2023/12/31 15:04:44;;;;;;;29.80;21.80;;;;;;;13.44;38.37;99503.83;104378;1256;60699;-63